McShan, Alabama
Current Conditions -  °F | °C
As of 8:58 AM on Wednesday 22 Oct 2014 (Local Time) from KCBM Reporting Station
Clear Clear  
Wind Chill: 54°   Ceiling: Unl
Heat Index: 54°   Visibility: 10mi
Dew Point: 47°   Wind: 8mph
Humidity: 78%   Direction: 40°NE
Pressure: 30.2"   Gusts: NA
Location:  33.38°N, 88.14°W
Report Text: KCBM 221358Z AUTO 04007KT 10SM CLR 12/08 A3020 RMK AO2 UPB1314E1353 SLP230 P0000 T01200083 $
Loading
Personal Weather Stations






























Interactive Weather Map
Tropical Storm Tracking
New forecast layout! Learn more

10-Day Weather Forecast

Advertisements
Track Severe Weather on mobile